Salishan — WUT4384 — position and weather

sailwx.info

Track history (hours):
 
Tides and Currents Weather Stations Pressure Air Temp Water Temp Dewpoint Dewpoint Depression Visibility Wind Speed Wind Dir Waves Ship Positions

Salishan

Owner: Sause Bros. Inc., COOS BAY, OR. More information available from US FCC via Universal Licensing System and Coast Guard Vessel Documentation Center.

Last reported at 2015-May-27 15:30 UTC. Time now 2015-May-28 14:12 UTC.
Position N 38°28' W 123°56'.

MMSI: 367007912.

Date/timePositionNaut miles runAvg speedWind from/ knotsBaromVisibWave heightAir tempDewpointWater temp
2015-May-27 15:30N 38°28' W 123°56'7 7.6
2015-May-27 14:33N 38°22' W 123°50'8 7.7
2015-May-27 13:33N 38°17' W 123°43'8 8.0
2015-May-27 12:33N 38°14' W 123°34'8 8.5
2015-May-27 11:33N 38°11' W 123°24'8 8.4
2015-May-27 10:33N 38°05' W 123°16'9 8.7
2015-May-27 09:33N 37°59' W 123°08'8 8.4
2015-May-27 08:33N 37°55' W 122°59'9 8.7
2015-May-27 07:33N 37°50' W 122°50'8 8.4
2015-May-27 06:33N 37°47' W 122°40'9 8.9
2015-May-27 05:33N 37°49' W 122°29'7 6.6
2015-May-27 04:33N 37°54' W 122°25'2 2.2
2015-May-27 03:33N 37°55' W 122°22'0 0.3
2015-May-27 02:33N 37°55' W 122°22'0 0.3
2015-May-27 01:33N 37°55' W 122°23'0 0.0
2015-May-27 00:31N 37°55' W 122°23'0 0.0
2015-May-26 23:28N 37°55' W 122°23'0 0.0
2015-May-26 22:28N 37°55' W 122°23'0 0.1
2015-May-26 21:34N 37°55' W 122°22'0 0.0
2015-May-26 20:30N 37°55' W 122°22'0 0.0
2015-May-26 19:33N 37°55' W 122°22'0 0.0
2015-May-26 18:33N 37°55' W 122°22'0 0.0
2015-May-26 17:33N 37°55' W 122°22'0 0.0
2015-May-26 16:33N 37°55' W 122°22'0 0.0
2015-May-26 15:33N 37°55' W 122°22'0 0.0
2015-May-26 14:30N 37°55' W 122°22'0 0.1
2015-May-26 13:33N 37°55' W 122°22'1 0.8
2015-May-26 12:33N 37°55' W 122°22'0 0.0
2015-May-26 11:33N 37°55' W 122°22'0 0.0
2015-May-26 10:33N 37°55' W 122°22'0 0.0
2015-May-26 09:33N 37°55' W 122°22'0 0.0
2015-May-26 08:33N 37°55' W 122°22'0 0.0
2015-May-26 07:33N 37°55' W 122°22'0 0.0
2015-May-26 06:30N 37°55' W 122°22'0 0.0
2015-May-26 05:33N 37°55' W 122°22'0 0.0
2015-May-26 04:33N 37°55' W 122°22'0 0.0
2015-May-26 03:33N 37°55' W 122°22'0 0.0
2015-May-26 02:30N 37°55' W 122°22'0 0.0
2015-May-26 01:27N 37°55' W 122°22'0 0.1
2015-May-26 00:33N 37°55' W 122°22'0 0.0
2015-May-25 23:33N 37°55' W 122°22'0 0.0
2015-May-25 22:33N 37°55' W 122°22'0 0.0
2015-May-25 21:33N 37°55' W 122°22'0 0.0
2015-May-25 20:30N 37°55' W 122°22'0 0.0
2015-May-25 19:33N 37°55' W 122°22'0 0.0
2015-May-25 18:33N 37°55' W 122°22'0 0.0
2015-May-25 17:33N 37°55' W 122°22'0 0.0
2015-May-25 16:33N 37°55' W 122°22'0 0.0
2015-May-25 15:30N 37°55' W 122°22'0 0.0
2015-May-25 14:30N 37°55' W 122°22'0 0.0
2015-May-25 13:33N 37°55' W 122°22'0 0.0
2015-May-25 12:33N 37°55' W 122°22'0 0.0
2015-May-25 11:33N 37°55' W 122°22'0 0.0
2015-May-25 10:33N 37°55' W 122°22'0 0.0
2015-May-25 09:30N 37°55' W 122°22'0 0.0
2015-May-25 08:30N 37°55' W 122°22'0 0.0
2015-May-25 07:33N 37°55' W 122°22'0 0.0
2015-May-25 06:33N 37°55' W 122°22'0 0.0
2015-May-25 05:32N 37°55' W 122°22'2 2.5
2015-May-25 04:33N 37°55' W 122°25'0 0.1
2015-May-25 03:29N 37°55' W 122°25'0 0.0
2015-May-25 02:20N 37°55' W 122°25'0 0.0
2015-May-25 01:26N 37°55' W 122°25'0 0.0
2015-May-25 00:26N 37°55' W 122°25'0 0.0
2015-May-24 23:29N 37°55' W 122°25'0 0.0
2015-May-24 22:32N 37°55' W 122°25'0 0.0
2015-May-24 21:26N 37°55' W 122°25'0 0.0
2015-May-24 20:32N 37°55' W 122°25'0 0.0
2015-May-24 19:17N 37°55' W 122°25'0 0.0
2015-May-24 18:32N 37°55' W 122°25'0 0.0
2015-May-24 17:32N 37°55' W 122°25'0 0.0
2015-May-24 16:32N 37°55' W 122°25'0 0.0
2015-May-24 15:23N 37°55' W 122°25'0 0.0
2015-May-24 14:29N 37°55' W 122°25'0 0.0
2015-May-24 13:29N 37°55' W 122°25'0 0.0
2015-May-24 12:32N 37°55' W 122°25'0 0.0
2015-May-24 11:29N 37°55' W 122°25'0 0.0
2015-May-24 10:32N 37°55' W 122°25'0 0.0
2015-May-24 09:32N 37°55' W 122°25'0 0.0
2015-May-24 08:29N 37°55' W 122°25'0 0.0
2015-May-24 07:32N 37°55' W 122°25'0 0.0
2015-May-24 06:23N 37°55' W 122°25'0 0.0
2015-May-24 05:29N 37°55' W 122°25'0 0.0
2015-May-24 04:23N 37°55' W 122°25'0 0.0
2015-May-24 03:26N 37°55' W 122°25'0 0.3
2015-May-24 02:34N 37°55' W 122°25'1 0.5
2015-May-24 01:32N 37°55' W 122°25'1 1.0
2015-May-24 00:33N 37°55' W 122°26'6 5.5
2015-May-23 23:33N 37°49' W 122°26'10 9.7
2015-May-23 22:33N 37°46' W 122°38'9 8.4
2015-May-23 21:31N 37°41' W 122°47'7 7.7
2015-May-23 20:33N 37°36' W 122°55'8 7.8
2015-May-23 19:33N 37°32' W 123°03'6 6.3
2015-May-23 18:33N 37°26' W 123°03'7 6.4
2015-May-23 17:32N 37°19' W 123°04'6 6.2
2015-May-23 16:33N 37°13' W 123°01'6 6.2
2015-May-23 15:31N 37°08' W 122°58'6 6.4
2015-May-23 14:30N 37°02' W 122°54'6 6.8
2015-May-23 13:33N 36°56' W 122°50'7 7.4
2015-May-23 12:33N 36°50' W 122°46'8 7.7
2015-May-23 11:29N 36°42' W 122°42'8 8.4
2015-May-23 10:33N 36°35' W 122°37'8 8.5
2015-May-23 09:33N 36°27' W 122°33'8 8.2
2015-May-23 08:33N 36°20' W 122°28'8 7.9
2015-May-23 07:33N 36°13' W 122°24'8 7.9
2015-May-23 06:33N 36°06' W 122°20'8 8.1
2015-May-23 05:33N 35°59' W 122°15'9 8.5
2015-May-23 04:33N 35°51' W 122°10'8 8.3
2015-May-23 03:33N 35°44' W 122°06'8 8.1
2015-May-23 02:33N 35°36' W 122°01'9 8.6
2015-May-23 01:30N 35°28' W 121°56'8 8.0
2015-May-23 00:27N 35°21' W 121°51'8 8.4
2015-May-22 23:30N 35°14' W 121°47'36 8.7
2015-May-22 19:24N 34°43' W 121°25'170 7.1
2015-May-21 19:32N 33°44' W 118°12'1 1.3
2015-May-21 18:33N 33°44' W 118°14'0 0.0
2015-May-21 17:27N 33°44' W 118°14'0 0.0
2015-May-21 16:27N 33°44' W 118°14'0 0.0
2015-May-21 05:30N 33°44' W 118°14'0 0.1
2015-May-21 04:33N 33°44' W 118°14'0 0.0
2015-May-20 23:33N 33°44' W 118°14'0 0.0
2015-May-20 22:24N 33°44' W 118°14'0 0.0
2015-May-20 21:24N 33°44' W 118°14'0 0.0
2015-May-20 20:11N 33°44' W 118°14'0 0.0
2015-May-20 19:32N 33°44' W 118°14'0 0.0
2015-May-20 18:17N 33°44' W 118°14'0 0.0
2015-May-20 17:14N 33°44' W 118°14'0 0.0
2015-May-20 16:32N 33°44' W 118°14'0 0.0
2015-May-20 15:23N 33°44' W 118°14'0 0.1
2015-May-20 13:31N 33°44' W 118°14'2 2.0
2015-May-20 12:29N 33°45' W 118°16'1 0.7
2015-May-20 11:18N 33°46' W 118°16'0 0.1
2015-May-20 10:32N 33°46' W 118°16'2 2.3
2015-May-20 09:31N 33°45' W 118°13'1 1.3
2015-May-20 08:33N 33°46' W 118°13'0 0.0
2015-May-20 07:33N 33°46' W 118°13'0 0.0
2015-May-20 06:33N 33°46' W 118°13'0 0.0
2015-May-20 05:33N 33°46' W 118°13'0 0.0
2015-May-20 04:33N 33°46' W 118°13'0 0.0
2015-May-20 03:33N 33°46' W 118°13'0 0.0
2015-May-20 02:33N 33°46' W 118°13'0 0.1
2015-May-20 01:33N 33°46' W 118°13'0 0.0
2015-May-20 00:33N 33°46' W 118°13'0 0.0
2015-May-19 23:33N 33°46' W 118°13'0 0.0
2015-May-19 22:33N 33°46' W 118°13'0 0.0
2015-May-19 21:33N 33°46' W 118°13'0 0.1
2015-May-19 20:34N 33°46' W 118°13'0 0.1
2015-May-19 19:33N 33°46' W 118°13'0 0.0
2015-May-19 18:33N 33°46' W 118°13'0 0.0
2015-May-19 17:33N 33°46' W 118°13'0 0.0
2015-May-19 16:33N 33°46' W 118°13'0 0.1
2015-May-19 15:33N 33°46' W 118°13'0 0.0
2015-May-19 14:33N 33°46' W 118°13'0 0.1
2015-May-19 13:33N 33°46' W 118°13'0 0.0
2015-May-19 12:33N 33°46' W 118°13'0 0.0
2015-May-19 11:33N 33°46' W 118°13'0 0.0
2015-May-19 10:33N 33°46' W 118°13'0 0.0
2015-May-19 09:34N 33°46' W 118°13'0 0.0
2015-May-19 08:33N 33°46' W 118°13'0 0.0
2015-May-19 07:34N 33°46' W 118°13'1 1.0
2015-May-19 06:33N 33°45' W 118°13'2 2.2
2015-May-19 05:32N 33°46' W 118°16'0 0.1
2015-May-19 04:32N 33°46' W 118°16'3 2.8
2015-May-19 03:32N 33°43' W 118°15'2 1.6
2015-May-19 02:24N 33°44' W 118°13'0 0.1
2015-May-19 01:32N 33°44' W 118°13'0 0.1
2015-May-19 00:32N 33°44' W 118°13'1 1.4
2015-May-18 23:33N 33°46' W 118°13'1 0.5
2015-May-18 22:33N 33°46' W 118°13'0 0.0
2015-May-18 21:33N 33°46' W 118°13'0 0.0
2015-May-18 20:33N 33°46' W 118°13'0 0.0
2015-May-18 19:33N 33°46' W 118°13'0 0.0
2015-May-18 18:33N 33°46' W 118°13'0 0.0
2015-May-18 17:24N 33°46' W 118°13'0 0.0
2015-May-18 16:33N 33°46' W 118°13'0 0.0
2015-May-18 15:33N 33°46' W 118°13'0 0.0
2015-May-18 14:33N 33°46' W 118°13'0 0.0
2015-May-18 13:33N 33°46' W 118°13'0 0.0
2015-May-18 12:33N 33°46' W 118°13'0 0.0
2015-May-18 11:33N 33°46' W 118°13'0 0.0
2015-May-18 10:33N 33°46' W 118°13'0 0.0
2015-May-18 09:33N 33°46' W 118°13'0 0.0
2015-May-18 08:33N 33°46' W 118°13'0 0.0
2015-May-18 07:33N 33°46' W 118°13'0 0.0
2015-May-18 06:33N 33°46' W 118°13'0 0.0
2015-May-18 05:33N 33°46' W 118°13'0 0.0
2015-May-18 04:33N 33°46' W 118°13'0 0.0
2015-May-18 03:33N 33°46' W 118°13'0 0.0
2015-May-18 02:33N 33°46' W 118°13'0 0.0
2015-May-18 01:33N 33°46' W 118°13'0 0.0
2015-May-18 00:33N 33°46' W 118°13'0 0.0
2015-May-17 23:33N 33°46' W 118°13'0 0.0
2015-May-17 22:33N 33°46' W 118°13'0 0.0
2015-May-17 21:33N 33°46' W 118°13'0 0.0
2015-May-17 20:33N 33°46' W 118°13'0 0.0
2015-May-17 19:33N 33°46' W 118°13'0 0.0
2015-May-17 18:33N 33°46' W 118°13'0 0.0
2015-May-17 17:33N 33°46' W 118°13'0 0.0
2015-May-17 16:33N 33°46' W 118°13'0 0.0
2015-May-17 15:33N 33°46' W 118°13'  
Track history (hours):
 
Tides and Currents Weather Stations Pressure Air Temp Water Temp Dewpoint Dewpoint Depression Visibility Wind Speed Wind Dir Waves Ship Positions

Salishan

Owner: Sause Bros. Inc., COOS BAY, OR. More information available from US FCC via Universal Licensing System and Coast Guard Vessel Documentation Center.

Last reported at 2015-May-27 15:30 UTC. Time now 2015-May-28 14:12 UTC.
Position N 38°28' W 123°56'.

MMSI: 367007912.

Date/timePositionNaut miles runAvg speedWind from/ knotsBaromVisibWave heightAir tempDewpointWater temp
2015-May-27 15:30N 38°28' W 123°56'7 7.6
2015-May-27 14:33N 38°22' W 123°50'8 7.7
2015-May-27 13:33N 38°17' W 123°43'8 8.0
2015-May-27 12:33N 38°14' W 123°34'8 8.5
2015-May-27 11:33N 38°11' W 123°24'8 8.4
2015-May-27 10:33N 38°05' W 123°16'9 8.7
2015-May-27 09:33N 37°59' W 123°08'8 8.4
2015-May-27 08:33N 37°55' W 122°59'9 8.7
2015-May-27 07:33N 37°50' W 122°50'8 8.4
2015-May-27 06:33N 37°47' W 122°40'9 8.9
2015-May-27 05:33N 37°49' W 122°29'7 6.6
2015-May-27 04:33N 37°54' W 122°25'2 2.2
2015-May-27 03:33N 37°55' W 122°22'0 0.3
2015-May-27 02:33N 37°55' W 122°22'0 0.3
2015-May-27 01:33N 37°55' W 122°23'0 0.0
2015-May-27 00:31N 37°55' W 122°23'0 0.0
2015-May-26 23:28N 37°55' W 122°23'0 0.0
2015-May-26 22:28N 37°55' W 122°23'0 0.1
2015-May-26 21:34N 37°55' W 122°22'0 0.0
2015-May-26 20:30N 37°55' W 122°22'0 0.0
2015-May-26 19:33N 37°55' W 122°22'0 0.0
2015-May-26 18:33N 37°55' W 122°22'0 0.0
2015-May-26 17:33N 37°55' W 122°22'0 0.0
2015-May-26 16:33N 37°55' W 122°22'0 0.0
2015-May-26 15:33N 37°55' W 122°22'0 0.0
2015-May-26 14:30N 37°55' W 122°22'0 0.1
2015-May-26 13:33N 37°55' W 122°22'1 0.8
2015-May-26 12:33N 37°55' W 122°22'0 0.0
2015-May-26 11:33N 37°55' W 122°22'0 0.0
2015-May-26 10:33N 37°55' W 122°22'0 0.0
2015-May-26 09:33N 37°55' W 122°22'0 0.0
2015-May-26 08:33N 37°55' W 122°22'0 0.0
2015-May-26 07:33N 37°55' W 122°22'0 0.0
2015-May-26 06:30N 37°55' W 122°22'0 0.0
2015-May-26 05:33N 37°55' W 122°22'0 0.0
2015-May-26 04:33N 37°55' W 122°22'0 0.0
2015-May-26 03:33N 37°55' W 122°22'0 0.0
2015-May-26 02:30N 37°55' W 122°22'0 0.0
2015-May-26 01:27N 37°55' W 122°22'0 0.1
2015-May-26 00:33N 37°55' W 122°22'0 0.0
2015-May-25 23:33N 37°55' W 122°22'0 0.0
2015-May-25 22:33N 37°55' W 122°22'0 0.0
2015-May-25 21:33N 37°55' W 122°22'0 0.0
2015-May-25 20:30N 37°55' W 122°22'0 0.0
2015-May-25 19:33N 37°55' W 122°22'0 0.0
2015-May-25 18:33N 37°55' W 122°22'0 0.0
2015-May-25 17:33N 37°55' W 122°22'0 0.0
2015-May-25 16:33N 37°55' W 122°22'0 0.0
2015-May-25 15:30N 37°55' W 122°22'0 0.0
2015-May-25 14:30N 37°55' W 122°22'0 0.0
2015-May-25 13:33N 37°55' W 122°22'0 0.0
2015-May-25 12:33N 37°55' W 122°22'0 0.0
2015-May-25 11:33N 37°55' W 122°22'0 0.0
2015-May-25 10:33N 37°55' W 122°22'0 0.0
2015-May-25 09:30N 37°55' W 122°22'0 0.0
2015-May-25 08:30N 37°55' W 122°22'0 0.0
2015-May-25 07:33N 37°55' W 122°22'0 0.0
2015-May-25 06:33N 37°55' W 122°22'0 0.0
2015-May-25 05:32N 37°55' W 122°22'2 2.5
2015-May-25 04:33N 37°55' W 122°25'0 0.1
2015-May-25 03:29N 37°55' W 122°25'0 0.0
2015-May-25 02:20N 37°55' W 122°25'0 0.0
2015-May-25 01:26N 37°55' W 122°25'0 0.0
2015-May-25 00:26N 37°55' W 122°25'0 0.0
2015-May-24 23:29N 37°55' W 122°25'0 0.0
2015-May-24 22:32N 37°55' W 122°25'0 0.0
2015-May-24 21:26N 37°55' W 122°25'0 0.0
2015-May-24 20:32N 37°55' W 122°25'0 0.0
2015-May-24 19:17N 37°55' W 122°25'0 0.0
2015-May-24 18:32N 37°55' W 122°25'0 0.0
2015-May-24 17:32N 37°55' W 122°25'0 0.0
2015-May-24 16:32N 37°55' W 122°25'0 0.0
2015-May-24 15:23N 37°55' W 122°25'0 0.0
2015-May-24 14:29N 37°55' W 122°25'0 0.0
2015-May-24 13:29N 37°55' W 122°25'0 0.0
2015-May-24 12:32N 37°55' W 122°25'0 0.0
2015-May-24 11:29N 37°55' W 122°25'0 0.0
2015-May-24 10:32N 37°55' W 122°25'0 0.0
2015-May-24 09:32N 37°55' W 122°25'0 0.0
2015-May-24 08:29N 37°55' W 122°25'0 0.0
2015-May-24 07:32N 37°55' W 122°25'0 0.0
2015-May-24 06:23N 37°55' W 122°25'0 0.0
2015-May-24 05:29N 37°55' W 122°25'0 0.0
2015-May-24 04:23N 37°55' W 122°25'0 0.0
2015-May-24 03:26N 37°55' W 122°25'0 0.3
2015-May-24 02:34N 37°55' W 122°25'1 0.5
2015-May-24 01:32N 37°55' W 122°25'1 1.0
2015-May-24 00:33N 37°55' W 122°26'6 5.5
2015-May-23 23:33N 37°49' W 122°26'10 9.7
2015-May-23 22:33N 37°46' W 122°38'9 8.4
2015-May-23 21:31N 37°41' W 122°47'7 7.7
2015-May-23 20:33N 37°36' W 122°55'8 7.8
2015-May-23 19:33N 37°32' W 123°03'6 6.3
2015-May-23 18:33N 37°26' W 123°03'7 6.4
2015-May-23 17:32N 37°19' W 123°04'6 6.2
2015-May-23 16:33N 37°13' W 123°01'6 6.2
2015-May-23 15:31N 37°08' W 122°58'6 6.4
2015-May-23 14:30N 37°02' W 122°54'6 6.8
2015-May-23 13:33N 36°56' W 122°50'7 7.4
2015-May-23 12:33N 36°50' W 122°46'8 7.7
2015-May-23 11:29N 36°42' W 122°42'8 8.4
2015-May-23 10:33N 36°35' W 122°37'8 8.5
2015-May-23 09:33N 36°27' W 122°33'8 8.2
2015-May-23 08:33N 36°20' W 122°28'8 7.9
2015-May-23 07:33N 36°13' W 122°24'8 7.9
2015-May-23 06:33N 36°06' W 122°20'8 8.1
2015-May-23 05:33N 35°59' W 122°15'9 8.5
2015-May-23 04:33N 35°51' W 122°10'8 8.3
2015-May-23 03:33N 35°44' W 122°06'8 8.1
2015-May-23 02:33N 35°36' W 122°01'9 8.6
2015-May-23 01:30N 35°28' W 121°56'8 8.0
2015-May-23 00:27N 35°21' W 121°51'8 8.4
2015-May-22 23:30N 35°14' W 121°47'36 8.7
2015-May-22 19:24N 34°43' W 121°25'170 7.1
2015-May-21 19:32N 33°44' W 118°12'1 1.3
2015-May-21 18:33N 33°44' W 118°14'0 0.0
2015-May-21 17:27N 33°44' W 118°14'0 0.0
2015-May-21 16:27N 33°44' W 118°14'0 0.0
2015-May-21 05:30N 33°44' W 118°14'0 0.1
2015-May-21 04:33N 33°44' W 118°14'0 0.0
2015-May-20 23:33N 33°44' W 118°14'0 0.0
2015-May-20 22:24N 33°44' W 118°14'0 0.0
2015-May-20 21:24N 33°44' W 118°14'0 0.0
2015-May-20 20:11N 33°44' W 118°14'0 0.0
2015-May-20 19:32N 33°44' W 118°14'0 0.0
2015-May-20 18:17N 33°44' W 118°14'0 0.0
2015-May-20 17:14N 33°44' W 118°14'0 0.0
2015-May-20 16:32N 33°44' W 118°14'0 0.0
2015-May-20 15:23N 33°44' W 118°14'0 0.1
2015-May-20 13:31N 33°44' W 118°14'2 2.0
2015-May-20 12:29N 33°45' W 118°16'1 0.7
2015-May-20 11:18N 33°46' W 118°16'0 0.1
2015-May-20 10:32N 33°46' W 118°16'2 2.3
2015-May-20 09:31N 33°45' W 118°13'1 1.3
2015-May-20 08:33N 33°46' W 118°13'0 0.0
2015-May-20 07:33N 33°46' W 118°13'0 0.0
2015-May-20 06:33N 33°46' W 118°13'0 0.0
2015-May-20 05:33N 33°46' W 118°13'0 0.0
2015-May-20 04:33N 33°46' W 118°13'0 0.0
2015-May-20 03:33N 33°46' W 118°13'0 0.0
2015-May-20 02:33N 33°46' W 118°13'0 0.1
2015-May-20 01:33N 33°46' W 118°13'0 0.0
2015-May-20 00:33N 33°46' W 118°13'0 0.0
2015-May-19 23:33N 33°46' W 118°13'0 0.0
2015-May-19 22:33N 33°46' W 118°13'0 0.0
2015-May-19 21:33N 33°46' W 118°13'0 0.1
2015-May-19 20:34N 33°46' W 118°13'0 0.1
2015-May-19 19:33N 33°46' W 118°13'0 0.0
2015-May-19 18:33N 33°46' W 118°13'0 0.0
2015-May-19 17:33N 33°46' W 118°13'0 0.0
2015-May-19 16:33N 33°46' W 118°13'0 0.1
2015-May-19 15:33N 33°46' W 118°13'0 0.0
2015-May-19 14:33N 33°46' W 118°13'0 0.1
2015-May-19 13:33N 33°46' W 118°13'0 0.0
2015-May-19 12:33N 33°46' W 118°13'0 0.0
2015-May-19 11:33N 33°46' W 118°13'0 0.0
2015-May-19 10:33N 33°46' W 118°13'0 0.0
2015-May-19 09:34N 33°46' W 118°13'0 0.0
2015-May-19 08:33N 33°46' W 118°13'0 0.0
2015-May-19 07:34N 33°46' W 118°13'1 1.0
2015-May-19 06:33N 33°45' W 118°13'2 2.2
2015-May-19 05:32N 33°46' W 118°16'0 0.1
2015-May-19 04:32N 33°46' W 118°16'3 2.8
2015-May-19 03:32N 33°43' W 118°15'2 1.6
2015-May-19 02:24N 33°44' W 118°13'0 0.1
2015-May-19 01:32N 33°44' W 118°13'0 0.1
2015-May-19 00:32N 33°44' W 118°13'1 1.4
2015-May-18 23:33N 33°46' W 118°13'1 0.5
2015-May-18 22:33N 33°46' W 118°13'0 0.0
2015-May-18 21:33N 33°46' W 118°13'0 0.0
2015-May-18 20:33N 33°46' W 118°13'0 0.0
2015-May-18 19:33N 33°46' W 118°13'0 0.0
2015-May-18 18:33N 33°46' W 118°13'0 0.0
2015-May-18 17:24N 33°46' W 118°13'0 0.0
2015-May-18 16:33N 33°46' W 118°13'0 0.0
2015-May-18 15:33N 33°46' W 118°13'0 0.0
2015-May-18 14:33N 33°46' W 118°13'0 0.0
2015-May-18 13:33N 33°46' W 118°13'0 0.0
2015-May-18 12:33N 33°46' W 118°13'0 0.0
2015-May-18 11:33N 33°46' W 118°13'0 0.0
2015-May-18 10:33N 33°46' W 118°13'0 0.0
2015-May-18 09:33N 33°46' W 118°13'0 0.0
2015-May-18 08:33N 33°46' W 118°13'0 0.0
2015-May-18 07:33N 33°46' W 118°13'0 0.0
2015-May-18 06:33N 33°46' W 118°13'0 0.0
2015-May-18 05:33N 33°46' W 118°13'0 0.0
2015-May-18 04:33N 33°46' W 118°13'0 0.0
2015-May-18 03:33N 33°46' W 118°13'0 0.0
2015-May-18 02:33N 33°46' W 118°13'0 0.0
2015-May-18 01:33N 33°46' W 118°13'0 0.0
2015-May-18 00:33N 33°46' W 118°13'0 0.0
2015-May-17 23:33N 33°46' W 118°13'0 0.0
2015-May-17 22:33N 33°46' W 118°13'0 0.0
2015-May-17 21:33N 33°46' W 118°13'0 0.0
2015-May-17 20:33N 33°46' W 118°13'0 0.0
2015-May-17 19:33N 33°46' W 118°13'0 0.0
2015-May-17 18:33N 33°46' W 118°13'0 0.0
2015-May-17 17:33N 33°46' W 118°13'0 0.0
2015-May-17 16:33N 33°46' W 118°13'0 0.0
2015-May-17 15:33N 33°46' W 118°13'  

Dump ship's entire track history